Frewsburg, New York
Current Conditions -  °F | °C
As of 5:15 AM on Friday 31 Oct 2014 (Local Time) from KJHW Reporting Station
Broken Clouds Broken Clouds  
Wind Chill: 37°   Ceiling: 11000
Heat Index: 37°   Visibility: 6mi
Dew Point: 34°   Wind: 3mph
Humidity: 87%   Direction: 190°S
Pressure: 29.95"   Gusts: NA
Location:  42.05°N, 79.16°W
Report Text: KJHW 310915Z AUTO 19003KT 6SM FEW045 BKN110 03/01 A2995 RMK AO1
Loading
Personal Weather Stations






























Interactive Weather Map
Tropical Storm Tracking
New forecast layout! Learn more

10-Day Weather Forecast

Advertisements
Track Severe Weather on mobile